Stony Point, Arkansas
Current Conditions -  °F | °C
As of 8:53 AM on Saturday 01 Nov 2014 (Local Time) from KRUE Reporting Station
Clear Clear  
Wind Chill: 34°   Ceiling: Unl
Heat Index: 34°   Visibility: 10mi
Dew Point: 28°   Wind: 0mph
Humidity: 79%   Direction: NA
Pressure: 30.49"   Gusts: NA
Location:  35.0362°N, 92.6967°W
Report Text: KRUE 011353Z AUTO 00000KT 10SM CLR 01/M02 A3049 RMK AO2 SLP322 T00111022
Loading
Personal Weather Stations






























Interactive Weather Map
Tropical Storm Tracking
New forecast layout! Learn more

10-Day Weather Forecast

Advertisements
Track Severe Weather on mobile